createdAt,value
2023-07-11T00:01:16.999Z,2.70
2023-07-11T00:03:44.659Z,2.90
2023-07-11T00:06:17.216Z,2.40
2023-07-11T00:08:44.411Z,2.83
2023-07-11T00:11:12.524Z,2.80
2023-07-11T00:13:41.505Z,2.85
2023-07-11T00:16:12.727Z,2.63
2023-07-11T00:18:40.165Z,3.03
2023-07-11T00:21:07.184Z,2.85
2023-07-11T00:23:34.475Z,2.85
2023-07-11T00:26:01.924Z,3.05
2023-07-11T00:28:29.374Z,3.00
2023-07-11T00:30:57.064Z,2.58
2023-07-11T00:33:24.300Z,2.70
2023-07-11T00:35:55.081Z,2.83
2023-07-11T00:38:23.039Z,2.60
2023-07-11T00:40:51.794Z,2.55
2023-07-11T00:43:21.183Z,2.65
2023-07-11T00:45:51.383Z,2.80
2023-07-11T00:48:21.358Z,2.55
2023-07-11T00:50:50.656Z,3.35
2023-07-11T00:53:18.718Z,2.92
2023-07-11T00:55:47.097Z,3.17
2023-07-11T00:58:21.138Z,3.17
2023-07-11T01:00:49.210Z,2.85
2023-07-11T01:03:17.629Z,3.30
2023-07-11T01:05:44.662Z,3.47
2023-07-11T01:08:12.262Z,3.00
2023-07-11T01:10:39.231Z,3.20
2023-07-11T01:13:06.490Z,3.08
2023-07-11T01:15:33.619Z,3.15
2023-07-11T01:18:00.575Z,3.30
2023-07-11T01:20:28.187Z,3.00
2023-07-11T01:22:57.104Z,3.30
2023-07-11T01:25:24.144Z,3.05
2023-07-11T01:27:51.561Z,3.30
2023-07-11T01:30:22.022Z,3.15
2023-07-11T01:32:49.493Z,3.42
2023-07-11T01:35:16.810Z,2.95
2023-07-11T01:37:43.819Z,3.20
2023-07-11T01:40:10.917Z,3.10
2023-07-11T01:42:38.975Z,2.88
2023-07-11T01:45:07.590Z,2.90
2023-07-11T01:47:36.760Z,2.80
2023-07-11T01:50:04.173Z,2.47
2023-07-11T01:52:31.127Z,2.97
2023-07-11T01:54:59.507Z,3.00
2023-07-11T01:57:26.579Z,2.88
2023-07-11T01:59:54.260Z,3.03
2023-07-11T02:02:21.327Z,3.25
2023-07-11T02:04:48.769Z,2.78
2023-07-11T02:07:16.049Z,2.80
2023-07-11T02:09:43.345Z,3.17
2023-07-11T02:12:11.506Z,2.83
2023-07-11T02:14:41.980Z,3.40
2023-07-11T02:17:10.070Z,2.90
2023-07-11T02:19:37.138Z,2.80
2023-07-11T02:22:04.777Z,3.15
2023-07-11T02:24:31.964Z,3.50
2023-07-11T02:26:59.033Z,3.08
2023-07-11T02:29:26.177Z,3.13
2023-07-11T02:31:53.769Z,2.97
2023-07-11T02:34:20.847Z,2.70
2023-07-11T02:36:48.871Z,3.60
2023-07-11T02:39:15.977Z,3.10
2023-07-11T02:41:43.243Z,2.95
2023-07-11T02:44:10.496Z,3.38
2023-07-11T02:46:38.434Z,2.65
2023-07-11T02:49:09.914Z,3.08
2023-07-11T02:51:37.825Z,2.90
2023-07-11T02:54:05.019Z,3.03
2023-07-11T02:56:32.013Z,2.45
2023-07-11T02:59:02.006Z,2.55
2023-07-11T03:01:33.797Z,2.80
2023-07-11T03:04:01.329Z,2.78
2023-07-11T03:06:28.209Z,2.63
2023-07-11T03:08:55.130Z,3.05
2023-07-11T03:11:22.064Z,2.67
2023-07-11T03:13:49.367Z,2.83
2023-07-11T03:16:17.212Z,2.65
2023-07-11T03:18:44.153Z,2.53
2023-07-11T03:21:11.165Z,2.70
2023-07-11T03:23:38.226Z,2.88
2023-07-11T03:26:05.760Z,2.75
2023-07-11T03:28:32.852Z,2.83
2023-07-11T03:31:00.376Z,2.67
2023-07-11T03:33:27.301Z,2.92
2023-07-11T03:35:54.378Z,2.75
2023-07-11T03:38:21.680Z,2.70
2023-07-11T03:40:48.832Z,2.80
2023-07-11T03:43:16.187Z,2.50
2023-07-11T03:45:49.893Z,2.90
2023-07-11T03:48:17.936Z,2.50
2023-07-11T03:50:45.336Z,2.65
2023-07-11T03:53:13.117Z,2.60
2023-07-11T03:55:42.890Z,2.85
2023-07-11T03:58:10.287Z,2.70
2023-07-11T04:00:37.533Z,5.05
2023-07-11T04:03:05.232Z,5.28
2023-07-11T04:05:32.298Z,3.55
2023-07-11T04:07:59.480Z,3.30
2023-07-11T04:10:26.649Z,3.92
2023-07-11T04:12:53.585Z,3.03
2023-07-11T04:15:20.535Z,3.35
2023-07-11T04:17:47.711Z,3.67
2023-07-11T04:20:15.112Z,2.85
2023-07-11T04:22:42.381Z,3.40
2023-07-11T04:25:09.901Z,2.95
2023-07-11T04:27:37.103Z,3.40
2023-07-11T04:30:06.599Z,3.25
2023-07-11T04:32:33.614Z,3.47
2023-07-11T04:35:00.770Z,3.25
2023-07-11T04:37:27.917Z,3.13
2023-07-11T04:39:55.203Z,2.63
2023-07-11T04:42:22.546Z,3.05
2023-07-11T04:44:49.464Z,2.78
2023-07-11T04:47:16.351Z,3.15
2023-07-11T04:49:43.670Z,3.15
2023-07-11T04:52:10.942Z,3.25
2023-07-11T04:54:37.866Z,3.00
2023-07-11T04:57:05.224Z,3.05
2023-07-11T04:59:32.523Z,3.65
2023-07-11T05:01:59.538Z,3.78
2023-07-11T05:04:26.624Z,3.50
2023-07-11T05:06:53.927Z,3.10
2023-07-11T05:09:21.261Z,3.03
2023-07-11T05:11:48.532Z,3.45
2023-07-11T05:14:16.061Z,3.45
2023-07-11T05:16:43.500Z,3.17
2023-07-11T05:19:10.661Z,2.90
2023-07-11T05:21:37.810Z,3.38
2023-07-11T05:24:06.659Z,3.00
2023-07-11T05:26:34.197Z,3.45
2023-07-11T05:29:01.261Z,2.90
2023-07-11T05:31:28.149Z,3.50
2023-07-11T05:33:55.421Z,3.40
2023-07-11T05:36:34.085Z,2.80
2023-07-11T05:39:09.624Z,3.03
2023-07-11T05:41:38.888Z,3.22
2023-07-11T05:44:06.371Z,2.70
2023-07-11T05:46:33.557Z,3.17
2023-07-11T05:49:01.202Z,2.92
2023-07-11T05:51:28.431Z,2.65
2023-07-11T05:53:55.444Z,2.88
2023-07-11T05:56:23.110Z,3.25
2023-07-11T05:58:52.246Z,2.97
2023-07-11T06:01:22.630Z,3.38
2023-07-11T06:04:05.860Z,2.97
2023-07-11T06:06:36.797Z,3.17
2023-07-11T06:09:04.030Z,2.65
2023-07-11T06:11:30.936Z,3.47
2023-07-11T06:13:59.256Z,2.85
2023-07-11T06:16:26.705Z,3.00
2023-07-11T06:18:54.494Z,2.88
2023-07-11T06:21:21.427Z,3.15
2023-07-11T06:23:48.804Z,2.85
2023-07-11T06:26:16.679Z,3.30
2023-07-11T06:28:44.293Z,2.90
2023-07-11T06:33:40.758Z,2.58
2023-07-11T06:36:09.696Z,3.17
2023-07-11T06:38:38.552Z,2.97
2023-07-11T06:41:05.975Z,3.50
2023-07-11T06:43:33.523Z,3.22
2023-07-11T06:46:02.266Z,2.70
2023-07-11T06:48:31.571Z,2.90
2023-07-11T06:51:00.925Z,2.80
2023-07-11T06:53:31.472Z,3.00
2023-07-11T06:55:59.092Z,2.47
2023-07-11T06:58:27.126Z,2.97
2023-07-11T07:01:03.609Z,3.08
2023-07-11T07:03:32.313Z,3.03
2023-07-11T07:06:09.374Z,2.63
2023-07-11T07:08:36.753Z,2.92
2023-07-11T07:11:04.563Z,2.95
2023-07-11T07:13:32.475Z,2.35
2023-07-11T07:16:03.783Z,2.30
2023-07-11T07:18:35.544Z,2.63
2023-07-11T07:21:04.578Z,2.58
2023-07-11T07:23:35.086Z,2.45
2023-07-11T07:26:05.073Z,2.88
2023-07-11T07:28:34.492Z,2.75
2023-07-11T07:31:04.767Z,2.67
2023-07-11T07:33:32.416Z,2.53
2023-07-11T07:36:05.017Z,3.03
2023-07-11T07:38:32.563Z,2.58
2023-07-11T07:41:02.358Z,2.58
2023-07-11T07:43:31.165Z,2.67
2023-07-11T07:46:00.924Z,2.95
2023-07-11T07:48:28.939Z,2.45
2023-07-11T07:51:10.618Z,2.78
2023-07-11T07:53:38.430Z,2.63
2023-07-11T07:56:17.308Z,2.53
2023-07-11T07:58:45.320Z,2.70
2023-07-11T08:01:16.468Z,2.45
2023-07-11T08:03:43.869Z,2.35
2023-07-11T08:06:16.837Z,2.65
2023-07-11T08:08:46.614Z,2.38
2023-07-11T08:11:15.243Z,2.65
2023-07-11T08:13:58.424Z,2.50
2023-07-11T08:16:32.623Z,2.60
2023-07-11T08:19:08.207Z,2.80
2023-07-11T08:21:37.400Z,2.80
2023-07-11T08:24:08.770Z,2.45
2023-07-11T08:26:36.013Z,2.83
2023-07-11T08:29:12.693Z,2.60
2023-07-11T08:31:47.727Z,2.10
2023-07-11T08:34:14.950Z,2.50
2023-07-11T08:36:41.905Z,3.20
2023-07-11T08:39:09.325Z,2.80
2023-07-11T08:41:45.386Z,2.90
2023-07-11T08:44:42.820Z,2.40
2023-07-11T08:47:10.549Z,2.95
2023-07-11T08:49:51.900Z,3.22
2023-07-11T08:52:22.001Z,2.83
2023-07-11T08:55:09.816Z,2.92
2023-07-11T08:57:43.787Z,2.70
2023-07-11T09:00:16.846Z,3.03
2023-07-11T09:02:57.357Z,2.85
2023-07-11T09:05:39.802Z,3.00
2023-07-11T09:08:06.763Z,3.25
2023-07-11T09:10:49.311Z,2.95
2023-07-11T09:13:31.593Z,3.20
2023-07-11T09:16:10.221Z,2.50
2023-07-11T09:18:57.142Z,2.80
2023-07-11T09:21:48.395Z,2.80
2023-07-11T09:24:34.715Z,2.63
2023-07-11T09:27:27.896Z,3.00
2023-07-11T09:32:29.007Z,3.22
2023-07-11T09:34:56.460Z,2.92
2023-07-11T09:37:34.861Z,2.75
2023-07-11T09:40:32.794Z,2.80
2023-07-11T09:43:00.924Z,3.10
2023-07-11T09:45:54.785Z,3.22
2023-07-11T09:48:39.857Z,3.47
2023-07-11T09:51:30.331Z,4.20
2023-07-11T09:53:57.664Z,3.70
2023-07-11T09:56:26.810Z,3.30
2023-07-11T09:59:00.991Z,3.53
2023-07-11T10:01:33.367Z,3.53
2023-07-11T10:04:02.117Z,3.22
2023-07-11T10:06:46.827Z,3.88
2023-07-11T10:09:39.170Z,3.90
2023-07-11T10:12:17.850Z,3.92
2023-07-11T10:14:47.448Z,4.00
2023-07-11T10:17:19.563Z,3.70
2023-07-11T10:19:53.411Z,3.60
2023-07-11T10:22:28.119Z,4.28
2023-07-11T10:25:27.811Z,3.95
2023-07-11T10:28:03.648Z,4.10
2023-07-11T10:30:33.776Z,3.78
2023-07-11T10:33:22.424Z,4.30
2023-07-11T10:36:05.303Z,4.15
2023-07-11T10:38:50.764Z,3.78
2023-07-11T10:41:23.949Z,4.20
2023-07-11T10:43:53.110Z,3.90
2023-07-11T10:46:34.467Z,3.97
2023-07-11T10:49:07.537Z,4.18
2023-07-11T10:51:51.302Z,4.53
2023-07-11T10:54:45.956Z,4.22
2023-07-11T10:57:44.134Z,4.22
2023-07-11T11:00:41.623Z,3.80
2023-07-11T11:03:27.672Z,4.00
2023-07-11T11:06:04.295Z,4.40
2023-07-11T11:08:34.734Z,4.18
2023-07-11T11:11:09.837Z,4.07
2023-07-11T11:13:49.578Z,4.70
2023-07-11T11:16:33.025Z,4.55
2023-07-11T11:19:07.441Z,4.47
2023-07-11T11:22:04.336Z,4.15
2023-07-11T11:24:53.556Z,4.20
2023-07-11T11:27:44.739Z,4.28
2023-07-11T11:30:11.569Z,4.30
2023-07-11T11:32:59.935Z,4.70
2023-07-11T11:35:52.860Z,4.75
2023-07-11T11:41:11.562Z,5.93
2023-07-11T11:45:43.708Z,5.30
2023-07-11T11:46:31.342Z,6.10
2023-07-11T11:51:32.330Z,5.43
2023-07-11T11:54:18.999Z,5.10
2023-07-11T11:56:49.242Z,6.10
2023-07-11T11:59:22.583Z,6.47
2023-07-11T12:01:58.030Z,7.07
2023-07-11T12:04:31.676Z,7.03
2023-07-11T14:31:52.676Z,6.82
2023-07-11T14:34:23.326Z,6.57
2023-07-11T14:36:52.870Z,7.65
2023-07-11T14:39:20.119Z,7.50
2023-07-11T14:44:34.354Z,7.38
2023-07-11T14:47:01.366Z,7.47
2023-07-11T14:49:29.223Z,7.47
2023-07-11T14:51:56.077Z,7.60
2023-07-11T14:54:28.118Z,8.32
2023-07-11T14:59:34.796Z,7.13
2023-07-11T15:02:21.642Z,6.75
2023-07-11T15:33:17.551Z,7.60
2023-07-11T15:51:31.147Z,5.95
2023-07-11T15:53:57.963Z,5.13
2023-07-11T15:56:24.819Z,5.10
2023-07-11T16:06:20.305Z,3.90
2023-07-11T16:08:47.240Z,4.25
2023-07-11T16:11:15.321Z,4.28
2023-07-11T16:13:42.406Z,4.30
2023-07-11T16:16:16.639Z,4.22
2023-07-11T16:18:44.175Z,4.38
2023-07-11T16:21:16.766Z,4.25
2023-07-11T16:23:43.751Z,4.35
2023-07-11T16:26:20.209Z,4.40
2023-07-11T16:28:47.515Z,4.13
2023-07-11T16:31:15.636Z,3.90
2023-07-11T16:33:43.131Z,4.15
2023-07-11T16:36:16.369Z,4.60
2023-07-11T16:38:43.640Z,4.22
2023-07-11T16:41:10.772Z,3.83
2023-07-11T16:43:37.645Z,3.65
2023-07-11T16:46:04.693Z,4.32
2023-07-11T16:48:32.889Z,3.95
2023-07-11T16:51:02.410Z,4.63
2023-07-11T16:53:33.202Z,4.55
2023-07-11T16:56:01.900Z,4.88
2023-07-11T16:58:41.269Z,4.95
2023-07-11T17:01:16.361Z,4.78
2023-07-11T17:03:43.914Z,5.00
2023-07-11T17:06:31.846Z,4.72
2023-07-11T17:09:01.375Z,5.13
2023-07-11T17:11:28.608Z,4.80
2023-07-11T17:13:55.530Z,4.70
2023-07-11T17:16:25.592Z,4.75
2023-07-11T17:18:52.518Z,4.72
2023-07-11T17:21:19.599Z,5.10
2023-07-11T17:23:46.605Z,4.70
2023-07-11T17:26:15.923Z,5.03
2023-07-11T17:28:43.053Z,5.00
2023-07-11T17:31:15.506Z,5.25
2023-07-11T17:33:43.068Z,5.32
2023-07-11T17:36:15.071Z,5.25
2023-07-11T17:38:42.899Z,5.18
2023-07-11T17:41:10.368Z,4.68
2023-07-11T17:43:39.397Z,4.43
2023-07-11T17:48:42.014Z,5.15
2023-07-11T17:51:13.155Z,4.82
2023-07-11T17:53:40.739Z,5.63
2023-07-11T17:56:15.337Z,5.43
2023-07-11T17:58:42.452Z,5.32
2023-07-11T18:01:18.266Z,5.25
2023-07-11T18:03:47.270Z,5.40
2023-07-11T18:06:23.364Z,6.00
2023-07-11T18:08:51.558Z,5.32
2023-07-11T18:11:18.510Z,5.43
2023-07-11T18:13:46.190Z,5.57
2023-07-11T18:16:16.218Z,5.75
2023-07-11T18:18:43.613Z,5.40
2023-07-11T18:21:11.665Z,5.40
2023-07-11T18:23:40.077Z,5.85
2023-07-11T18:26:19.453Z,5.82
2023-07-11T18:28:47.815Z,5.38
2023-07-11T18:31:20.477Z,5.65
2023-07-11T18:33:49.167Z,5.50
2023-07-11T18:36:26.053Z,5.80
2023-07-11T18:38:54.160Z,5.85
2023-07-11T18:41:21.215Z,5.75
2023-07-11T18:43:48.160Z,4.93
2023-07-11T18:46:17.883Z,5.53
2023-07-11T18:48:45.886Z,5.50
2023-07-11T18:51:15.984Z,5.60
2023-07-11T18:53:44.333Z,5.60
2023-07-11T18:56:18.800Z,5.18
2023-07-11T18:58:45.826Z,5.63
2023-07-11T19:01:12.988Z,5.80
2023-07-11T19:03:40.595Z,5.22
2023-07-11T19:06:15.042Z,5.35
2023-07-11T19:08:42.577Z,5.38
2023-07-11T19:11:14.533Z,5.28
2023-07-11T19:13:42.594Z,6.00
2023-07-11T19:16:22.756Z,6.13
2023-07-11T19:18:49.868Z,5.47
2023-07-11T19:21:16.847Z,5.70
2023-07-11T19:23:43.847Z,5.82
2023-07-11T19:26:15.733Z,5.95
2023-07-11T19:28:42.714Z,6.22
2023-07-11T19:31:13.875Z,5.55
2023-07-11T19:33:40.709Z,5.88
2023-07-11T19:36:20.663Z,6.07
2023-07-11T19:38:47.720Z,6.13
2023-07-11T19:41:17.166Z,5.82
2023-07-11T19:43:47.058Z,6.18
2023-07-11T19:46:16.890Z,6.45
2023-07-11T19:48:44.351Z,6.63
2023-07-11T19:51:12.928Z,6.13
2023-07-11T19:53:40.152Z,6.38
2023-07-11T19:56:24.241Z,5.93
2023-07-11T19:58:51.572Z,6.70
2023-07-11T20:01:18.672Z,5.85
2023-07-11T20:03:45.634Z,6.25
2023-07-11T20:06:19.427Z,6.47
2023-07-11T20:08:50.224Z,6.53
2023-07-11T20:11:18.285Z,6.40
2023-07-11T20:13:45.184Z,6.53
2023-07-11T20:16:19.412Z,6.05
2023-07-11T20:18:47.213Z,6.10
2023-07-11T20:21:21.035Z,6.10
2023-07-11T20:23:51.700Z,6.10
2023-07-11T20:26:24.879Z,6.82
2023-07-11T20:31:20.109Z,5.78
2023-07-11T20:33:47.262Z,6.63
2023-07-11T20:36:25.198Z,6.25
2023-07-11T20:38:53.468Z,6.25
2023-07-11T20:41:20.608Z,6.65
2023-07-11T20:43:47.505Z,6.40
2023-07-11T20:46:20.742Z,6.78
2023-07-11T20:48:48.962Z,6.93
2023-07-11T20:51:18.918Z,6.43
2023-07-11T20:53:46.168Z,6.18
2023-07-11T20:56:19.979Z,6.15
2023-07-11T20:58:46.918Z,6.45
2023-07-11T21:01:16.453Z,6.63
2023-07-11T21:03:43.773Z,5.68
2023-07-11T21:06:33.055Z,5.57
2023-07-11T21:09:00.717Z,5.70
2023-07-11T21:11:27.658Z,5.65
2023-07-11T21:13:54.628Z,5.20
2023-07-11T21:16:25.924Z,5.15
2023-07-11T21:18:53.005Z,5.05
2023-07-11T21:21:22.568Z,5.32
2023-07-11T21:23:49.476Z,5.10
2023-07-11T21:26:18.855Z,5.55
2023-07-11T21:28:47.027Z,5.05
2023-07-11T21:31:17.764Z,5.95
2023-07-11T21:33:46.020Z,5.40
2023-07-11T21:36:25.549Z,5.85
2023-07-11T21:38:53.228Z,5.07
2023-07-11T21:41:22.006Z,5.35
2023-07-11T21:43:49.396Z,6.28
2023-07-11T21:46:20.917Z,6.60
2023-07-11T21:48:48.718Z,5.47
2023-07-11T21:51:16.874Z,6.28
2023-07-11T21:53:43.804Z,5.60
2023-07-11T21:56:10.705Z,6.10
2023-07-11T21:58:37.865Z,6.05
2023-07-11T22:01:06.215Z,6.10
2023-07-11T22:03:34.183Z,6.07
2023-07-11T22:06:02.087Z,5.60
2023-07-11T22:08:32.924Z,5.93
2023-07-11T22:11:03.939Z,6.25
2023-07-11T22:13:35.681Z,6.30
2023-07-11T22:16:02.596Z,6.65
2023-07-11T22:18:32.128Z,6.28
2023-07-11T22:20:59.884Z,6.57
2023-07-11T22:23:26.890Z,5.88
2023-07-11T22:25:53.749Z,6.43
2023-07-11T22:28:23.255Z,6.13
2023-07-11T22:30:52.656Z,6.80
2023-07-11T22:33:20.520Z,6.07
2023-07-11T22:35:48.107Z,6.68
2023-07-11T22:38:17.221Z,6.10
2023-07-11T22:40:49.120Z,6.95
2023-07-11T22:43:18.755Z,6.07
2023-07-11T22:45:52.653Z,7.05
2023-07-11T22:48:22.496Z,6.15
2023-07-11T22:50:51.827Z,6.72
2023-07-11T22:53:24.253Z,7.22
2023-07-11T22:56:00.740Z,6.70
2023-07-11T22:58:36.663Z,6.97
2023-07-11T23:01:06.925Z,7.20
2023-07-11T23:03:34.357Z,6.78
2023-07-11T23:06:27.121Z,6.57
2023-07-11T23:11:22.866Z,6.10
2023-07-11T23:13:49.789Z,6.00
2023-07-11T23:16:30.290Z,6.68
2023-07-11T23:19:00.335Z,5.15
2023-07-11T23:21:28.065Z,4.85
2023-07-11T23:23:55.794Z,4.30
2023-07-11T23:26:22.901Z,4.63
2023-07-11T23:28:49.958Z,4.28
2023-07-11T23:31:17.730Z,3.90
2023-07-11T23:33:44.776Z,4.03
2023-07-11T23:36:23.534Z,2.88
2023-07-11T23:38:52.209Z,3.40
2023-07-11T23:41:19.679Z,3.33
2023-07-11T23:43:47.261Z,2.65
2023-07-11T23:46:30.494Z,2.60
2023-07-11T23:48:58.124Z,2.80
2023-07-11T23:51:27.096Z,3.13
2023-07-11T23:53:54.555Z,2.25
2023-07-11T23:56:23.607Z,2.92
2023-07-11T23:58:51.565Z,2.35
